Connexion S'enregistrer

Connexion à votre compte

Identifiant
Mot de passe
Maintenir la connexion active sur ce site

Créer un compte

Pour valider ce formulaire, vous devez remplir tous les champs.
Nom
Identifiant
Mot de passe
Répétez le mot de passe
Adresse e-mail
Répétez l'adresse e-mail

Veuillez saisir l'adresse e-mail associée à votre compte d'utilisateur. Un code de vérification vous sera adressé. Lorsque vous le recevrez, vous pourrez choisir un nouveau mot de passe

Nous contacter

 Téléphone : +33 (0)4 79 54 41 81

Coordonnées détaillées et accès : cliquez ici

 
LFLB °C
    Ferienhaus Ostsee
[source: ADDS]
METAR
LFLB 270930Z AUTO 01011KT CAVOK 20/12 Q1011 NOSIG =
TAF LFLB 270500Z 2706/2806 VRB02KT CAVOK BECMG 2706/2708 36010KT BECMG 2708/2710 SCT045 BECMG 2717/2720 VRB03KT BKN030 PROB30 TEMPO 2722/2802 -SHRA TEMPO 2802/2806 RA BKN010
TAF
TAF LFLB 270500Z 2706/2806 VRB02KT CAVOK BECMG 2706/2708 36010KT BECMG 2708/2710 SCT045 BECMG 2717/2720 VRB03KT BKN030 PROB30 TEMPO 2722/2802 -SHRA TEMPO 2802/2806 RA BKN010 =
SR / SS: 03:53 / 19:13 UTC (Lever/Coucher du soleil le 2019-05-27)
JSN Boot template designed by JoomlaShine.com